createdAt,value
2022-12-22T00:07:32.819Z,-0.36
2022-12-22T00:17:32.796Z,-0.37
2022-12-22T00:27:32.827Z,-0.36
2022-12-22T00:37:32.821Z,-0.33
2022-12-22T00:47:32.855Z,-0.35
2022-12-22T00:57:32.819Z,-0.32
2022-12-22T01:07:32.839Z,-0.32
2022-12-22T01:17:32.866Z,-0.28
2022-12-22T01:27:32.851Z,-0.25
2022-12-22T01:37:32.835Z,-0.21
2022-12-22T01:47:32.898Z,-0.2
2022-12-22T01:57:32.841Z,-0.19
2022-12-22T02:07:32.896Z,-0.15
2022-12-22T02:17:32.902Z,-0.12
2022-12-22T02:27:32.900Z,-0.12
2022-12-22T02:37:32.854Z,-0.12
2022-12-22T02:47:32.943Z,-0.14
2022-12-22T02:57:32.877Z,-0.13
2022-12-22T03:07:32.889Z,-0.14
2022-12-22T03:17:32.896Z,-0.09
2022-12-22T03:27:32.922Z,-0.08
2022-12-22T03:37:32.917Z,-0.08
2022-12-22T03:47:32.959Z,-0.07
2022-12-22T03:57:32.934Z,-0.08
2022-12-22T04:07:33.013Z,-0.07
2022-12-22T04:17:32.930Z,-0.06
2022-12-22T04:27:32.953Z,-0.06
2022-12-22T04:47:32.988Z,-0.03
2022-12-22T04:57:36.892Z,-0.02
2022-12-22T05:07:32.983Z,-0.02
2022-12-22T05:17:32.975Z,-0.05
2022-12-22T05:27:33.003Z,-0.06
2022-12-22T05:37:32.990Z,-0.05
2022-12-22T05:47:33.129Z,-0.04
2022-12-22T05:57:33.018Z,-0.04
2022-12-22T06:07:33.042Z,-0.1
2022-12-22T06:17:33.017Z,-0.11
2022-12-22T06:27:33.075Z,-0.2
2022-12-22T06:37:33.059Z,-0.17
2022-12-22T06:47:33.047Z,-0.12
2022-12-22T06:57:33.027Z,-0.09
2022-12-22T07:07:33.067Z,-0.05
2022-12-22T07:17:33.041Z,-0.03
2022-12-22T07:27:33.075Z,0.06
2022-12-22T07:37:33.039Z,0.14
2022-12-22T07:47:35.434Z,0.2
2022-12-22T07:57:33.069Z,0.36
2022-12-22T08:07:33.137Z,0.59
2022-12-22T08:17:33.082Z,0.65
2022-12-22T08:27:33.103Z,0.85
2022-12-22T08:37:33.091Z,0.87
2022-12-22T08:47:33.243Z,0.93
2022-12-22T08:57:33.100Z,1.02
2022-12-22T09:07:33.130Z,1.04
2022-12-22T09:17:33.089Z,1.43
2022-12-22T09:27:33.102Z,1.41
2022-12-22T09:37:33.100Z,1.44
2022-12-22T09:47:33.140Z,1.48
2022-12-22T09:57:33.111Z,1.78
2022-12-22T10:07:33.164Z,1.94
2022-12-22T10:17:33.126Z,2.3
2022-12-22T10:27:33.142Z,2.56
2022-12-22T10:37:33.146Z,2.96
2022-12-22T10:47:33.175Z,3.18
2022-12-22T10:57:33.148Z,2.85
2022-12-22T11:07:33.163Z,2.79
2022-12-22T11:17:33.114Z,2.75
2022-12-22T11:27:33.201Z,2.66
2022-12-22T11:37:33.144Z,2.73
2022-12-22T11:47:33.216Z,2.66
2022-12-22T11:57:33.171Z,2.55
2022-12-22T12:07:33.199Z,2.22
2022-12-22T12:17:33.151Z,2.49
2022-12-22T12:27:33.183Z,2.59
2022-12-22T12:37:33.165Z,2.39
2022-12-22T12:47:33.187Z,2.39
2022-12-22T12:57:33.167Z,2.43
2022-12-22T13:07:33.163Z,2.42
2022-12-22T13:17:33.263Z,2.5
2022-12-22T13:27:33.243Z,2.26
2022-12-22T13:37:33.206Z,2.18
2022-12-22T13:47:33.234Z,2.14
2022-12-22T13:57:33.189Z,2.06
2022-12-22T14:07:33.212Z,1.92
2022-12-22T14:17:33.194Z,1.93
2022-12-22T14:27:33.224Z,1.89
2022-12-22T14:37:33.471Z,1.75
2022-12-22T14:47:33.227Z,1.52
2022-12-22T14:57:33.220Z,1.44
2022-12-22T15:08:04.502Z,1.38
2022-12-22T15:17:33.194Z,1.37
2022-12-22T15:27:33.418Z,1.34
2022-12-22T15:37:33.249Z,1.32
2022-12-22T15:47:33.302Z,1.28
2022-12-22T15:57:33.353Z,1.24
2022-12-22T16:07:33.251Z,1.17
2022-12-22T16:17:33.239Z,1.11
2022-12-22T16:27:33.271Z,1.04
2022-12-22T16:37:33.263Z,1.02
2022-12-22T16:47:33.277Z,0.92
2022-12-22T16:57:33.268Z,0.85
2022-12-22T17:07:33.292Z,0.84
2022-12-22T17:17:38.550Z,0.87
2022-12-22T17:27:33.295Z,0.86
2022-12-22T17:37:33.302Z,0.82
2022-12-22T17:47:38.801Z,0.77
2022-12-22T17:57:33.279Z,0.76
2022-12-22T18:07:33.324Z,0.72
2022-12-22T18:17:35.935Z,0.71
2022-12-22T18:27:33.354Z,0.67
2022-12-22T18:37:33.302Z,0.65
2022-12-22T18:47:33.363Z,0.61
2022-12-22T18:57:33.377Z,0.59
2022-12-22T19:07:33.377Z,0.58
2022-12-22T19:17:33.382Z,0.54
2022-12-22T19:27:33.430Z,0.55
2022-12-22T19:37:33.374Z,0.54
2022-12-22T19:47:33.400Z,0.5
2022-12-22T19:57:33.384Z,0.5
2022-12-22T20:07:33.433Z,0.48
2022-12-22T20:17:33.394Z,0.5
2022-12-22T20:27:33.455Z,0.51
2022-12-22T20:37:33.408Z,0.5
2022-12-22T20:47:33.440Z,0.46
2022-12-22T20:57:33.419Z,0.38
2022-12-22T21:07:33.443Z,0.32
2022-12-22T21:17:33.415Z,0.32
2022-12-22T21:27:33.441Z,0.33
2022-12-22T21:37:33.419Z,0.33
2022-12-22T21:47:33.501Z,0.23
2022-12-22T21:57:33.461Z,0.2
2022-12-22T22:07:33.478Z,0.17
2022-12-22T22:17:33.474Z,0.2
2022-12-22T22:27:33.527Z,0.19
2022-12-22T22:37:33.480Z,0.14
2022-12-22T22:47:33.509Z,0.15
2022-12-22T22:57:33.479Z,0.17
2022-12-22T23:07:33.523Z,0.17
2022-12-22T23:17:33.475Z,0.2
2022-12-22T23:27:33.512Z,0.18
2022-12-22T23:37:33.503Z,0.21
2022-12-22T23:47:33.521Z,0.2
2022-12-22T23:57:33.523Z,0.19
